sensor_id;sensor_type;location;lat;lon;timestamp;P1;durP1;ratioP1;P2;durP2;ratioP2
44165;SDS011;30476;53.468;9.826;2022-12-07T00:03:43;17.13;;;13.00;;
44165;SDS011;30476;53.468;9.826;2022-12-07T00:06:10;19.67;;;13.47;;
44165;SDS011;30476;53.468;9.826;2022-12-07T00:08:37;19.83;;;14.10;;
44165;SDS011;30476;53.468;9.826;2022-12-07T00:11:04;15.27;;;11.60;;
44165;SDS011;30476;53.468;9.826;2022-12-07T00:13:33;18.30;;;13.37;;
44165;SDS011;30476;53.468;9.826;2022-12-07T00:16:00;24.30;;;13.50;;
44165;SDS011;30476;53.468;9.826;2022-12-07T00:18:34;20.30;;;14.23;;
44165;SDS011;30476;53.468;9.826;2022-12-07T00:21:03;17.37;;;13.80;;
44165;SDS011;30476;53.468;9.826;2022-12-07T00:23:40;18.40;;;13.03;;
44165;SDS011;30476;53.468;9.826;2022-12-07T00:26:15;15.20;;;12.00;;
44165;SDS011;30476;53.468;9.826;2022-12-07T00:28:52;16.83;;;11.47;;
44165;SDS011;30476;53.468;9.826;2022-12-07T00:31:25;15.03;;;10.80;;
44165;SDS011;30476;53.468;9.826;2022-12-07T00:33:53;12.90;;;9.90;;
44165;SDS011;30476;53.468;9.826;2022-12-07T00:36:20;12.87;;;10.60;;
44165;SDS011;30476;53.468;9.826;2022-12-07T00:38:47;14.27;;;10.50;;
44165;SDS011;30476;53.468;9.826;2022-12-07T00:41:14;15.10;;;10.10;;
44165;SDS011;30476;53.468;9.826;2022-12-07T00:43:42;14.30;;;9.73;;
44165;SDS011;30476;53.468;9.826;2022-12-07T00:46:09;15.50;;;10.30;;
44165;SDS011;30476;53.468;9.826;2022-12-07T00:48:35;13.30;;;11.17;;
44165;SDS011;30476;53.468;9.826;2022-12-07T00:51:01;11.00;;;8.70;;
44165;SDS011;30476;53.468;9.826;2022-12-07T00:53:28;14.23;;;10.60;;
44165;SDS011;30476;53.468;9.826;2022-12-07T00:55:55;13.43;;;9.20;;
44165;SDS011;30476;53.468;9.826;2022-12-07T00:58:21;12.23;;;9.23;;
44165;SDS011;30476;53.468;9.826;2022-12-07T01:00:48;11.77;;;9.13;;
44165;SDS011;30476;53.468;9.826;2022-12-07T01:03:14;15.30;;;9.83;;
44165;SDS011;30476;53.468;9.826;2022-12-07T01:05:48;11.87;;;9.47;;
44165;SDS011;30476;53.468;9.826;2022-12-07T01:08:17;12.40;;;9.10;;
44165;SDS011;30476;53.468;9.826;2022-12-07T01:10:44;12.20;;;8.60;;
44165;SDS011;30476;53.468;9.826;2022-12-07T01:13:10;14.23;;;9.07;;
44165;SDS011;30476;53.468;9.826;2022-12-07T01:15:38;13.20;;;9.40;;
44165;SDS011;30476;53.468;9.826;2022-12-07T01:18:05;12.27;;;8.93;;
44165;SDS011;30476;53.468;9.826;2022-12-07T01:20:31;15.40;;;10.23;;
44165;SDS011;30476;53.468;9.826;2022-12-07T01:22:57;13.70;;;8.73;;
44165;SDS011;30476;53.468;9.826;2022-12-07T01:25:23;17.53;;;9.77;;
44165;SDS011;30476;53.468;9.826;2022-12-07T01:27:48;12.23;;;8.90;;
44165;SDS011;30476;53.468;9.826;2022-12-07T01:30:14;12.97;;;9.43;;
44165;SDS011;30476;53.468;9.826;2022-12-07T01:32:40;12.97;;;9.47;;
44165;SDS011;30476;53.468;9.826;2022-12-07T01:35:06;12.87;;;9.97;;
44165;SDS011;30476;53.468;9.826;2022-12-07T01:37:36;13.23;;;8.33;;
44165;SDS011;30476;53.468;9.826;2022-12-07T01:40:03;10.87;;;9.13;;
44165;SDS011;30476;53.468;9.826;2022-12-07T01:42:30;10.53;;;8.00;;
44165;SDS011;30476;53.468;9.826;2022-12-07T01:47:41;9.67;;;7.80;;
44165;SDS011;30476;53.468;9.826;2022-12-07T01:50:08;9.20;;;8.20;;
44165;SDS011;30476;53.468;9.826;2022-12-07T01:52:34;10.97;;;7.87;;
44165;SDS011;30476;53.468;9.826;2022-12-07T01:55:03;12.33;;;8.17;;
44165;SDS011;30476;53.468;9.826;2022-12-07T01:57:34;13.00;;;8.40;;
44165;SDS011;30476;53.468;9.826;2022-12-07T02:00:03;10.63;;;7.93;;
44165;SDS011;30476;53.468;9.826;2022-12-07T02:02:33;15.77;;;8.40;;
44165;SDS011;30476;53.468;9.826;2022-12-07T02:05:02;13.20;;;8.20;;
44165;SDS011;30476;53.468;9.826;2022-12-07T02:07:30;11.23;;;7.43;;
44165;SDS011;30476;53.468;9.826;2022-12-07T02:10:10;13.03;;;7.87;;
44165;SDS011;30476;53.468;9.826;2022-12-07T02:13:06;11.03;;;7.57;;
44165;SDS011;30476;53.468;9.826;2022-12-07T02:34:48;7.67;;;5.53;;
44165;SDS011;30476;53.468;9.826;2022-12-07T02:37:19;7.83;;;5.10;;
44165;SDS011;30476;53.468;9.826;2022-12-07T02:40:06;6.20;;;4.90;;
44165;SDS011;30476;53.468;9.826;2022-12-07T02:42:38;6.83;;;3.87;;
44165;SDS011;30476;53.468;9.826;2022-12-07T02:45:09;4.63;;;4.07;;
44165;SDS011;30476;53.468;9.826;2022-12-07T02:47:38;5.70;;;3.40;;
44165;SDS011;30476;53.468;9.826;2022-12-07T02:50:06;5.87;;;4.17;;
44165;SDS011;30476;53.468;9.826;2022-12-07T02:52:33;5.10;;;3.63;;
44165;SDS011;30476;53.468;9.826;2022-12-07T02:54:58;7.30;;;3.83;;
44165;SDS011;30476;53.468;9.826;2022-12-07T02:57:27;8.57;;;3.20;;
44165;SDS011;30476;53.468;9.826;2022-12-07T03:00:11;3.13;;;2.83;;
44165;SDS011;30476;53.468;9.826;2022-12-07T03:03:22;4.27;;;2.90;;
44165;SDS011;30476;53.468;9.826;2022-12-07T03:08:51;2.97;;;2.50;;
44165;SDS011;30476;53.468;9.826;2022-12-07T03:11:30;5.73;;;3.57;;
44165;SDS011;30476;53.468;9.826;2022-12-07T03:13:59;2.50;;;2.30;;
44165;SDS011;30476;53.468;9.826;2022-12-07T03:19:37;2.90;;;2.20;;
44165;SDS011;30476;53.468;9.826;2022-12-07T03:22:09;4.73;;;2.60;;
44165;SDS011;30476;53.468;9.826;2022-12-07T03:27:35;4.13;;;2.43;;
44165;SDS011;30476;53.468;9.826;2022-12-07T03:30:07;4.37;;;1.80;;
44165;SDS011;30476;53.468;9.826;2022-12-07T03:35:12;2.63;;;1.70;;
44165;SDS011;30476;53.468;9.826;2022-12-07T03:43:15;4.83;;;2.07;;
44165;SDS011;30476;53.468;9.826;2022-12-07T03:48:37;2.70;;;1.53;;
44165;SDS011;30476;53.468;9.826;2022-12-07T03:51:22;4.93;;;1.80;;
44165;SDS011;30476;53.468;9.826;2022-12-07T03:54:02;1.93;;;1.70;;
44165;SDS011;30476;53.468;9.826;2022-12-07T03:56:46;4.33;;;1.70;;
44165;SDS011;30476;53.468;9.826;2022-12-07T03:59:14;5.27;;;1.90;;
44165;SDS011;30476;53.468;9.826;2022-12-07T04:01:41;1.93;;;1.83;;
44165;SDS011;30476;53.468;9.826;2022-12-07T04:04:16;2.20;;;1.20;;
44165;SDS011;30476;53.468;9.826;2022-12-07T04:06:42;1.20;;;1.10;;
44165;SDS011;30476;53.468;9.826;2022-12-07T04:09:08;6.60;;;1.47;;
44165;SDS011;30476;53.468;9.826;2022-12-07T04:11:34;1.83;;;1.60;;
44165;SDS011;30476;53.468;9.826;2022-12-07T04:13:59;3.00;;;1.40;;
44165;SDS011;30476;53.468;9.826;2022-12-07T04:16:44;1.67;;;1.27;;
44165;SDS011;30476;53.468;9.826;2022-12-07T04:19:11;2.20;;;1.70;;
44165;SDS011;30476;53.468;9.826;2022-12-07T04:21:37;1.30;;;1.20;;
44165;SDS011;30476;53.468;9.826;2022-12-07T04:24:04;2.13;;;1.93;;
44165;SDS011;30476;53.468;9.826;2022-12-07T04:26:30;4.63;;;1.40;;
44165;SDS011;30476;53.468;9.826;2022-12-07T04:28:55;1.50;;;1.40;;
44165;SDS011;30476;53.468;9.826;2022-12-07T04:31:21;3.03;;;1.30;;
44165;SDS011;30476;53.468;9.826;2022-12-07T04:33:47;3.50;;;1.67;;
44165;SDS011;30476;53.468;9.826;2022-12-07T04:36:13;2.00;;;1.40;;
44165;SDS011;30476;53.468;9.826;2022-12-07T04:38:38;2.90;;;1.50;;
44165;SDS011;30476;53.468;9.826;2022-12-07T04:41:08;1.50;;;1.40;;
44165;SDS011;30476;53.468;9.826;2022-12-07T04:43:35;1.60;;;1.43;;
44165;SDS011;30476;53.468;9.826;2022-12-07T04:46:01;2.53;;;1.53;;
44165;SDS011;30476;53.468;9.826;2022-12-07T04:48:27;2.47;;;1.20;;
44165;SDS011;30476;53.468;9.826;2022-12-07T04:50:53;1.80;;;1.40;;
44165;SDS011;30476;53.468;9.826;2022-12-07T04:53:19;2.10;;;1.50;;
44165;SDS011;30476;53.468;9.826;2022-12-07T04:55:45;1.90;;;1.40;;
44165;SDS011;30476;53.468;9.826;2022-12-07T04:58:11;1.50;;;1.40;;
44165;SDS011;30476;53.468;9.826;2022-12-07T05:00:38;3.73;;;2.00;;
44165;SDS011;30476;53.468;9.826;2022-12-07T05:03:04;2.60;;;1.27;;
44165;SDS011;30476;53.468;9.826;2022-12-07T05:05:30;2.07;;;1.97;;
44165;SDS011;30476;53.468;9.826;2022-12-07T05:07:56;2.50;;;1.30;;
44165;SDS011;30476;53.468;9.826;2022-12-07T05:10:21;2.30;;;1.73;;
44165;SDS011;30476;53.468;9.826;2022-12-07T05:12:47;1.50;;;1.40;;
44165;SDS011;30476;53.468;9.826;2022-12-07T05:15:14;3.60;;;1.77;;
44165;SDS011;30476;53.468;9.826;2022-12-07T05:17:40;1.67;;;1.40;;
44165;SDS011;30476;53.468;9.826;2022-12-07T05:20:06;3.57;;;1.70;;
44165;SDS011;30476;53.468;9.826;2022-12-07T05:22:33;2.40;;;1.77;;
44165;SDS011;30476;53.468;9.826;2022-12-07T05:24:59;2.07;;;1.63;;
44165;SDS011;30476;53.468;9.826;2022-12-07T05:27:24;2.30;;;1.90;;
44165;SDS011;30476;53.468;9.826;2022-12-07T05:29:50;2.20;;;1.97;;
44165;SDS011;30476;53.468;9.826;2022-12-07T05:32:17;4.03;;;2.00;;
44165;SDS011;30476;53.468;9.826;2022-12-07T05:34:43;4.00;;;1.67;;
44165;SDS011;30476;53.468;9.826;2022-12-07T05:37:09;1.47;;;1.37;;
44165;SDS011;30476;53.468;9.826;2022-12-07T05:39:35;1.50;;;1.40;;
44165;SDS011;30476;53.468;9.826;2022-12-07T05:42:00;1.73;;;1.40;;
44165;SDS011;30476;53.468;9.826;2022-12-07T05:44:39;3.90;;;1.73;;
44165;SDS011;30476;53.468;9.826;2022-12-07T05:47:09;2.17;;;1.30;;
44165;SDS011;30476;53.468;9.826;2022-12-07T05:49:36;1.43;;;1.33;;
44165;SDS011;30476;53.468;9.826;2022-12-07T05:52:02;1.50;;;1.40;;
44165;SDS011;30476;53.468;9.826;2022-12-07T05:54:28;6.73;;;2.47;;
44165;SDS011;30476;53.468;9.826;2022-12-07T05:56:54;1.77;;;1.67;;
44165;SDS011;30476;53.468;9.826;2022-12-07T05:59:20;2.73;;;1.43;;
44165;SDS011;30476;53.468;9.826;2022-12-07T06:04:19;1.50;;;1.27;;
44165;SDS011;30476;53.468;9.826;2022-12-07T06:06:45;2.53;;;1.50;;
44165;SDS011;30476;53.468;9.826;2022-12-07T06:09:11;3.60;;;1.50;;
44165;SDS011;30476;53.468;9.826;2022-12-07T06:11:38;2.50;;;1.30;;
44165;SDS011;30476;53.468;9.826;2022-12-07T06:14:23;1.20;;;1.10;;
44165;SDS011;30476;53.468;9.826;2022-12-07T06:16:49;5.60;;;1.50;;
44165;SDS011;30476;53.468;9.826;2022-12-07T06:19:15;1.43;;;1.20;;
44165;SDS011;30476;53.468;9.826;2022-12-07T06:21:41;2.60;;;2.40;;
44165;SDS011;30476;53.468;9.826;2022-12-07T06:24:07;1.50;;;1.40;;
44165;SDS011;30476;53.468;9.826;2022-12-07T06:26:36;1.60;;;1.10;;
44165;SDS011;30476;53.468;9.826;2022-12-07T06:29:02;3.50;;;1.20;;
44165;SDS011;30476;53.468;9.826;2022-12-07T06:31:27;1.60;;;1.50;;
44165;SDS011;30476;53.468;9.826;2022-12-07T06:33:57;3.27;;;1.13;;
44165;SDS011;30476;53.468;9.826;2022-12-07T06:36:23;2.40;;;1.00;;
44165;SDS011;30476;53.468;9.826;2022-12-07T06:38:49;1.77;;;1.30;;
44165;SDS011;30476;53.468;9.826;2022-12-07T06:41:15;4.10;;;1.10;;
44165;SDS011;30476;53.468;9.826;2022-12-07T06:43:41;2.47;;;1.10;;
44165;SDS011;30476;53.468;9.826;2022-12-07T06:46:07;3.47;;;1.20;;
44165;SDS011;30476;53.468;9.826;2022-12-07T06:48:33;1.37;;;1.10;;
44165;SDS011;30476;53.468;9.826;2022-12-07T06:50:59;1.30;;;1.20;;
44165;SDS011;30476;53.468;9.826;2022-12-07T06:53:25;1.50;;;1.10;;
44165;SDS011;30476;53.468;9.826;2022-12-07T06:55:51;1.77;;;1.67;;
44165;SDS011;30476;53.468;9.826;2022-12-07T06:58:17;2.83;;;1.60;;
44165;SDS011;30476;53.468;9.826;2022-12-07T07:00:43;2.20;;;1.10;;
44165;SDS011;30476;53.468;9.826;2022-12-07T07:03:09;1.23;;;1.10;;
44165;SDS011;30476;53.468;9.826;2022-12-07T07:05:36;2.10;;;1.23;;
44165;SDS011;30476;53.468;9.826;2022-12-07T07:08:01;1.20;;;0.90;;
44165;SDS011;30476;53.468;9.826;2022-12-07T07:10:28;1.10;;;1.00;;
44165;SDS011;30476;53.468;9.826;2022-12-07T07:12:54;3.60;;;1.30;;
44165;SDS011;30476;53.468;9.826;2022-12-07T07:15:19;2.97;;;1.20;;
44165;SDS011;30476;53.468;9.826;2022-12-07T07:17:45;1.43;;;1.27;;
44165;SDS011;30476;53.468;9.826;2022-12-07T07:20:11;1.67;;;1.13;;
44165;SDS011;30476;53.468;9.826;2022-12-07T07:22:37;1.17;;;1.07;;
44165;SDS011;30476;53.468;9.826;2022-12-07T07:25:03;2.07;;;1.20;;
44165;SDS011;30476;53.468;9.826;2022-12-07T07:27:29;2.10;;;1.10;;
44165;SDS011;30476;53.468;9.826;2022-12-07T07:29:54;1.63;;;1.00;;
44165;SDS011;30476;53.468;9.826;2022-12-07T07:32:20;1.47;;;1.10;;
44165;SDS011;30476;53.468;9.826;2022-12-07T07:34:47;2.47;;;1.30;;
44165;SDS011;30476;53.468;9.826;2022-12-07T07:37:13;3.03;;;1.60;;
44165;SDS011;30476;53.468;9.826;2022-12-07T07:39:39;4.17;;;1.60;;
44165;SDS011;30476;53.468;9.826;2022-12-07T07:42:05;1.53;;;1.20;;
44165;SDS011;30476;53.468;9.826;2022-12-07T07:44:33;1.60;;;1.30;;
44165;SDS011;30476;53.468;9.826;2022-12-07T07:46:59;2.33;;;1.03;;
44165;SDS011;30476;53.468;9.826;2022-12-07T07:49:25;3.77;;;1.50;;
44165;SDS011;30476;53.468;9.826;2022-12-07T07:51:52;1.60;;;1.50;;
44165;SDS011;30476;53.468;9.826;2022-12-07T07:54:17;1.63;;;1.20;;
44165;SDS011;30476;53.468;9.826;2022-12-07T07:56:43;2.47;;;1.83;;
44165;SDS011;30476;53.468;9.826;2022-12-07T07:59:09;3.10;;;1.53;;
44165;SDS011;30476;53.468;9.826;2022-12-07T08:01:34;1.47;;;1.10;;
44165;SDS011;30476;53.468;9.826;2022-12-07T08:04:00;2.27;;;1.30;;
44165;SDS011;30476;53.468;9.826;2022-12-07T08:06:26;1.70;;;1.07;;
44165;SDS011;30476;53.468;9.826;2022-12-07T08:08:52;1.03;;;0.93;;
44165;SDS011;30476;53.468;9.826;2022-12-07T08:11:18;3.77;;;0.97;;
44165;SDS011;30476;53.468;9.826;2022-12-07T08:13:47;2.23;;;1.10;;
44165;SDS011;30476;53.468;9.826;2022-12-07T08:16:12;1.57;;;1.17;;
44165;SDS011;30476;53.468;9.826;2022-12-07T08:18:39;1.20;;;1.10;;
44165;SDS011;30476;53.468;9.826;2022-12-07T08:21:06;1.30;;;1.20;;
44165;SDS011;30476;53.468;9.826;2022-12-07T08:23:34;1.70;;;1.30;;
44165;SDS011;30476;53.468;9.826;2022-12-07T08:26:01;1.30;;;1.20;;
44165;SDS011;30476;53.468;9.826;2022-12-07T08:28:28;1.47;;;1.20;;
44165;SDS011;30476;53.468;9.826;2022-12-07T08:31:27;3.20;;;1.20;;
44165;SDS011;30476;53.468;9.826;2022-12-07T08:33:47;1.40;;;1.10;;
44165;SDS011;30476;53.468;9.826;2022-12-07T08:36:13;2.07;;;1.20;;
44165;SDS011;30476;53.468;9.826;2022-12-07T08:38:40;2.93;;;1.20;;
44165;SDS011;30476;53.468;9.826;2022-12-07T08:41:06;1.80;;;1.27;;
44165;SDS011;30476;53.468;9.826;2022-12-07T08:43:33;2.07;;;1.30;;
44165;SDS011;30476;53.468;9.826;2022-12-07T08:48:34;1.60;;;1.23;;
44165;SDS011;30476;53.468;9.826;2022-12-07T08:51:04;5.10;;;1.20;;
44165;SDS011;30476;53.468;9.826;2022-12-07T08:53:30;2.00;;;1.13;;
44165;SDS011;30476;53.468;9.826;2022-12-07T08:55:58;2.27;;;1.30;;
44165;SDS011;30476;53.468;9.826;2022-12-07T08:58:24;1.43;;;1.17;;
44165;SDS011;30476;53.468;9.826;2022-12-07T09:00:50;2.20;;;1.23;;
44165;SDS011;30476;53.468;9.826;2022-12-07T09:03:16;4.10;;;1.20;;
44165;SDS011;30476;53.468;9.826;2022-12-07T09:05:41;7.30;;;2.13;;
44165;SDS011;30476;53.468;9.826;2022-12-07T09:08:07;3.40;;;1.33;;
44165;SDS011;30476;53.468;9.826;2022-12-07T09:10:33;1.53;;;1.43;;
44165;SDS011;30476;53.468;9.826;2022-12-07T09:12:59;3.10;;;1.30;;
44165;SDS011;30476;53.468;9.826;2022-12-07T09:15:26;3.57;;;1.60;;
44165;SDS011;30476;53.468;9.826;2022-12-07T09:17:53;2.83;;;1.37;;
44165;SDS011;30476;53.468;9.826;2022-12-07T09:20:19;5.60;;;1.80;;
44165;SDS011;30476;53.468;9.826;2022-12-07T09:22:45;5.67;;;1.20;;
44165;SDS011;30476;53.468;9.826;2022-12-07T09:25:11;6.10;;;1.83;;
44165;SDS011;30476;53.468;9.826;2022-12-07T09:27:36;3.33;;;1.37;;
44165;SDS011;30476;53.468;9.826;2022-12-07T09:30:03;1.70;;;1.23;;
44165;SDS011;30476;53.468;9.826;2022-12-07T09:32:30;4.00;;;1.40;;
44165;SDS011;30476;53.468;9.826;2022-12-07T09:34:55;5.70;;;1.70;;
44165;SDS011;30476;53.468;9.826;2022-12-07T09:37:21;1.60;;;1.37;;
44165;SDS011;30476;53.468;9.826;2022-12-07T09:39:47;2.00;;;1.80;;
44165;SDS011;30476;53.468;9.826;2022-12-07T09:42:29;4.90;;;1.30;;
44165;SDS011;30476;53.468;9.826;2022-12-07T09:45:01;1.73;;;1.10;;
44165;SDS011;30476;53.468;9.826;2022-12-07T09:47:29;3.90;;;1.20;;
44165;SDS011;30476;53.468;9.826;2022-12-07T09:49:58;1.50;;;0.97;;
44165;SDS011;30476;53.468;9.826;2022-12-07T09:52:29;2.90;;;0.80;;
44165;SDS011;30476;53.468;9.826;2022-12-07T09:54:56;1.30;;;0.87;;
44165;SDS011;30476;53.468;9.826;2022-12-07T09:57:26;1.80;;;0.60;;
44165;SDS011;30476;53.468;9.826;2022-12-07T09:59:56;0.87;;;0.70;;
44165;SDS011;30476;53.468;9.826;2022-12-07T10:04:51;1.10;;;0.67;;
44165;SDS011;30476;53.468;9.826;2022-12-07T10:07:17;1.10;;;0.90;;
44165;SDS011;30476;53.468;9.826;2022-12-07T10:09:44;1.13;;;0.90;;
44165;SDS011;30476;53.468;9.826;2022-12-07T10:12:11;0.87;;;0.60;;
44165;SDS011;30476;53.468;9.826;2022-12-07T10:14:39;1.80;;;0.80;;
44165;SDS011;30476;53.468;9.826;2022-12-07T10:22:37;1.40;;;0.73;;
44165;SDS011;30476;53.468;9.826;2022-12-07T10:25:16;1.90;;;0.87;;
44165;SDS011;30476;53.468;9.826;2022-12-07T10:27:44;1.47;;;0.80;;
44165;SDS011;30476;53.468;9.826;2022-12-07T10:30:23;2.03;;;0.90;;
44165;SDS011;30476;53.468;9.826;2022-12-07T10:32:49;1.17;;;0.90;;
44165;SDS011;30476;53.468;9.826;2022-12-07T10:35:23;1.10;;;0.83;;
44165;SDS011;30476;53.468;9.826;2022-12-07T10:37:51;1.63;;;0.80;;
44165;SDS011;30476;53.468;9.826;2022-12-07T10:49:18;2.90;;;0.83;;
44165;SDS011;30476;53.468;9.826;2022-12-07T10:51:46;0.80;;;0.77;;
44165;SDS011;30476;53.468;9.826;2022-12-07T10:57:16;1.00;;;0.80;;
44165;SDS011;30476;53.468;9.826;2022-12-07T11:05:23;2.67;;;1.03;;
44165;SDS011;30476;53.468;9.826;2022-12-07T11:13:51;1.47;;;0.90;;
44165;SDS011;30476;53.468;9.826;2022-12-07T11:22:18;3.80;;;1.20;;
44165;SDS011;30476;53.468;9.826;2022-12-07T11:27:48;3.23;;;1.47;;
44165;SDS011;30476;53.468;9.826;2022-12-07T11:30:31;1.40;;;0.70;;
44165;SDS011;30476;53.468;9.826;2022-12-07T11:33:09;3.67;;;0.80;;
44165;SDS011;30476;53.468;9.826;2022-12-07T11:38:23;4.67;;;1.00;;
44165;SDS011;30476;53.468;9.826;2022-12-07T11:40:58;1.00;;;0.87;;
44165;SDS011;30476;53.468;9.826;2022-12-07T11:43:41;1.67;;;0.87;;
44165;SDS011;30476;53.468;9.826;2022-12-07T11:46:17;3.70;;;1.40;;
44165;SDS011;30476;53.468;9.826;2022-12-07T11:48:56;4.27;;;1.50;;
44165;SDS011;30476;53.468;9.826;2022-12-07T11:51:29;2.03;;;0.90;;
44165;SDS011;30476;53.468;9.826;2022-12-07T11:54:29;3.70;;;1.20;;
44165;SDS011;30476;53.468;9.826;2022-12-07T11:57:02;3.80;;;1.70;;
44165;SDS011;30476;53.468;9.826;2022-12-07T11:59:36;2.87;;;1.40;;
44165;SDS011;30476;53.468;9.826;2022-12-07T12:02:16;3.50;;;1.17;;
44165;SDS011;30476;53.468;9.826;2022-12-07T12:04:59;4.57;;;1.17;;
44165;SDS011;30476;53.468;9.826;2022-12-07T12:07:48;2.00;;;0.80;;
44165;SDS011;30476;53.468;9.826;2022-12-07T12:10:22;1.77;;;1.00;;
44165;SDS011;30476;53.468;9.826;2022-12-07T12:21:17;2.83;;;1.30;;
44165;SDS011;30476;53.468;9.826;2022-12-07T12:23:48;1.90;;;1.10;;
44165;SDS011;30476;53.468;9.826;2022-12-07T12:26:21;2.00;;;1.80;;
44165;SDS011;30476;53.468;9.826;2022-12-07T12:28:57;2.73;;;1.00;;
44165;SDS011;30476;53.468;9.826;2022-12-07T12:34:01;8.67;;;2.27;;
44165;SDS011;30476;53.468;9.826;2022-12-07T12:36:47;11.03;;;10.20;;
44165;SDS011;30476;53.468;9.826;2022-12-07T12:39:14;1.83;;;1.73;;
44165;SDS011;30476;53.468;9.826;2022-12-07T12:47:02;5.90;;;1.20;;
44165;SDS011;30476;53.468;9.826;2022-12-07T12:52:46;1.40;;;1.20;;
44165;SDS011;30476;53.468;9.826;2022-12-07T12:55:17;2.47;;;1.10;;
44165;SDS011;30476;53.468;9.826;2022-12-07T12:57:46;2.10;;;1.87;;
44165;SDS011;30476;53.468;9.826;2022-12-07T13:00:32;2.60;;;1.10;;
44165;SDS011;30476;53.468;9.826;2022-12-07T13:02:59;3.40;;;1.50;;
44165;SDS011;30476;53.468;9.826;2022-12-07T13:05:26;1.83;;;1.67;;
44165;SDS011;30476;53.468;9.826;2022-12-07T13:07:57;4.37;;;1.00;;
44165;SDS011;30476;53.468;9.826;2022-12-07T13:10:32;1.40;;;1.10;;
44165;SDS011;30476;53.468;9.826;2022-12-07T13:23:32;2.37;;;1.57;;
44165;SDS011;30476;53.468;9.826;2022-12-07T13:26:09;3.90;;;1.10;;
44165;SDS011;30476;53.468;9.826;2022-12-07T13:28:48;2.70;;;0.90;;
44165;SDS011;30476;53.468;9.826;2022-12-07T13:31:39;3.80;;;1.13;;
44165;SDS011;30476;53.468;9.826;2022-12-07T13:36:52;2.80;;;1.10;;
44165;SDS011;30476;53.468;9.826;2022-12-07T13:39:19;4.20;;;1.00;;
44165;SDS011;30476;53.468;9.826;2022-12-07T13:41:55;2.70;;;0.90;;
44165;SDS011;30476;53.468;9.826;2022-12-07T13:44:22;2.67;;;0.97;;
44165;SDS011;30476;53.468;9.826;2022-12-07T13:46:55;1.10;;;0.90;;
44165;SDS011;30476;53.468;9.826;2022-12-07T13:49:28;5.57;;;1.40;;
44165;SDS011;30476;53.468;9.826;2022-12-07T13:52:08;5.83;;;1.30;;
44165;SDS011;30476;53.468;9.826;2022-12-07T13:54:54;8.13;;;1.50;;
44165;SDS011;30476;53.468;9.826;2022-12-07T13:57:26;1.93;;;0.90;;
44165;SDS011;30476;53.468;9.826;2022-12-07T13:59:54;2.50;;;1.10;;
44165;SDS011;30476;53.468;9.826;2022-12-07T14:02:21;2.80;;;0.97;;
44165;SDS011;30476;53.468;9.826;2022-12-07T14:05:05;1.40;;;1.00;;
44165;SDS011;30476;53.468;9.826;2022-12-07T14:07:48;4.10;;;1.50;;
44165;SDS011;30476;53.468;9.826;2022-12-07T14:10:33;3.83;;;1.10;;
44165;SDS011;30476;53.468;9.826;2022-12-07T14:16:54;2.83;;;1.00;;
44165;SDS011;30476;53.468;9.826;2022-12-07T14:18:58;4.80;;;0.97;;
44165;SDS011;30476;53.468;9.826;2022-12-07T14:21:26;6.87;;;2.07;;
44165;SDS011;30476;53.468;9.826;2022-12-07T14:24:10;1.63;;;0.90;;
44165;SDS011;30476;53.468;9.826;2022-12-07T14:26:37;8.23;;;1.60;;
44165;SDS011;30476;53.468;9.826;2022-12-07T14:29:21;1.90;;;1.30;;
44165;SDS011;30476;53.468;9.826;2022-12-07T14:31:47;2.60;;;1.00;;
44165;SDS011;30476;53.468;9.826;2022-12-07T14:34:13;2.03;;;1.10;;
44165;SDS011;30476;53.468;9.826;2022-12-07T14:36:39;2.60;;;1.33;;
44165;SDS011;30476;53.468;9.826;2022-12-07T14:39:05;2.93;;;1.60;;
44165;SDS011;30476;53.468;9.826;2022-12-07T14:41:31;2.37;;;1.60;;
44165;SDS011;30476;53.468;9.826;2022-12-07T14:44:29;2.40;;;2.20;;
44165;SDS011;30476;53.468;9.826;2022-12-07T14:46:55;5.00;;;2.70;;
44165;SDS011;30476;53.468;9.826;2022-12-07T14:49:20;3.53;;;2.10;;
44165;SDS011;30476;53.468;9.826;2022-12-07T14:51:46;1.80;;;1.70;;
44165;SDS011;30476;53.468;9.826;2022-12-07T14:54:14;3.30;;;1.40;;
44165;SDS011;30476;53.468;9.826;2022-12-07T14:56:43;8.63;;;1.80;;
44165;SDS011;30476;53.468;9.826;2022-12-07T14:59:10;5.20;;;1.10;;
44165;SDS011;30476;53.468;9.826;2022-12-07T15:01:36;1.87;;;1.10;;
44165;SDS011;30476;53.468;9.826;2022-12-07T15:04:02;1.27;;;1.17;;
44165;SDS011;30476;53.468;9.826;2022-12-07T15:06:28;3.30;;;1.00;;
44165;SDS011;30476;53.468;9.826;2022-12-07T15:08:54;4.00;;;1.00;;
44165;SDS011;30476;53.468;9.826;2022-12-07T15:11:20;2.80;;;1.20;;
44165;SDS011;30476;53.468;9.826;2022-12-07T15:13:46;1.30;;;0.90;;
44165;SDS011;30476;53.468;9.826;2022-12-07T15:16:30;1.73;;;1.10;;
44165;SDS011;30476;53.468;9.826;2022-12-07T15:18:56;4.90;;;1.20;;
44165;SDS011;30476;53.468;9.826;2022-12-07T15:21:22;3.03;;;1.00;;
44165;SDS011;30476;53.468;9.826;2022-12-07T15:23:48;2.50;;;1.80;;
44165;SDS011;30476;53.468;9.826;2022-12-07T15:26:14;1.40;;;1.30;;
44165;SDS011;30476;53.468;9.826;2022-12-07T15:28:40;4.80;;;1.60;;
44165;SDS011;30476;53.468;9.826;2022-12-07T15:31:13;5.37;;;1.20;;
44165;SDS011;30476;53.468;9.826;2022-12-07T15:33:39;2.30;;;1.50;;
44165;SDS011;30476;53.468;9.826;2022-12-07T15:36:05;2.70;;;1.90;;
44165;SDS011;30476;53.468;9.826;2022-12-07T15:38:31;2.40;;;1.30;;
44165;SDS011;30476;53.468;9.826;2022-12-07T15:40:57;1.70;;;1.60;;
44165;SDS011;30476;53.468;9.826;2022-12-07T15:43:23;3.93;;;1.60;;
44165;SDS011;30476;53.468;9.826;2022-12-07T15:46:08;3.77;;;1.50;;
44165;SDS011;30476;53.468;9.826;2022-12-07T15:48:33;2.70;;;1.30;;
44165;SDS011;30476;53.468;9.826;2022-12-07T15:51:06;3.60;;;1.40;;
44165;SDS011;30476;53.468;9.826;2022-12-07T15:53:34;7.37;;;1.63;;
44165;SDS011;30476;53.468;9.826;2022-12-07T15:56:00;2.97;;;1.17;;
44165;SDS011;30476;53.468;9.826;2022-12-07T15:58:26;2.93;;;1.00;;
44165;SDS011;30476;53.468;9.826;2022-12-07T16:00:52;2.13;;;1.20;;
44165;SDS011;30476;53.468;9.826;2022-12-07T16:03:18;1.73;;;1.30;;
44165;SDS011;30476;53.468;9.826;2022-12-07T16:05:50;1.50;;;1.10;;
44165;SDS011;30476;53.468;9.826;2022-12-07T16:08:18;2.73;;;1.10;;
44165;SDS011;30476;53.468;9.826;2022-12-07T16:10:44;1.93;;;1.63;;
44165;SDS011;30476;53.468;9.826;2022-12-07T16:13:10;1.30;;;1.20;;
44165;SDS011;30476;53.468;9.826;2022-12-07T16:15:42;3.10;;;1.30;;
44165;SDS011;30476;53.468;9.826;2022-12-07T16:18:08;3.20;;;1.80;;
44165;SDS011;30476;53.468;9.826;2022-12-07T16:20:34;3.60;;;1.60;;
44165;SDS011;30476;53.468;9.826;2022-12-07T16:23:00;1.40;;;1.20;;
44165;SDS011;30476;53.468;9.826;2022-12-07T16:25:26;1.40;;;1.30;;
44165;SDS011;30476;53.468;9.826;2022-12-07T16:27:52;5.93;;;1.30;;
44165;SDS011;30476;53.468;9.826;2022-12-07T16:30:17;2.47;;;1.50;;
44165;SDS011;30476;53.468;9.826;2022-12-07T16:32:44;1.80;;;1.70;;
44165;SDS011;30476;53.468;9.826;2022-12-07T16:35:09;3.03;;;1.23;;
44165;SDS011;30476;53.468;9.826;2022-12-07T16:37:36;4.50;;;2.53;;
44165;SDS011;30476;53.468;9.826;2022-12-07T16:40:02;2.50;;;1.60;;
44165;SDS011;30476;53.468;9.826;2022-12-07T16:42:34;3.30;;;1.90;;
44165;SDS011;30476;53.468;9.826;2022-12-07T16:45:01;1.77;;;1.67;;
44165;SDS011;30476;53.468;9.826;2022-12-07T16:47:27;4.57;;;2.07;;
44165;SDS011;30476;53.468;9.826;2022-12-07T16:49:53;3.00;;;1.50;;
44165;SDS011;30476;53.468;9.826;2022-12-07T16:52:19;2.70;;;1.63;;
44165;SDS011;30476;53.468;9.826;2022-12-07T16:54:46;4.33;;;2.80;;
44165;SDS011;30476;53.468;9.826;2022-12-07T16:57:13;4.37;;;1.90;;
44165;SDS011;30476;53.468;9.826;2022-12-07T16:59:39;3.40;;;2.10;;
44165;SDS011;30476;53.468;9.826;2022-12-07T17:02:05;3.87;;;2.57;;
44165;SDS011;30476;53.468;9.826;2022-12-07T17:04:32;5.70;;;2.07;;
44165;SDS011;30476;53.468;9.826;2022-12-07T17:06:59;3.03;;;1.90;;